Time;durP1;ratioP1;P1;durP2;ratioP2;P2;SDS_P1;SDS_P2;PMS_P1;PMS_P2;Temp;Humidity;BMP_temperature;BMP_pressure;BME280_temperature;BME280_humidity;BME280_pressure;Samples;Min_cycle;Max_cycle;Signal;HPM_P1;HPM_P2
2020/12/14 00:02:14;;;;;;;7.30;2.60;;;12.70;99.90;;;;;;4818997;29;20061;-75
2020/12/14 00:04:40;;;;;;;8.55;3.30;;;12.60;99.90;;;;;;4826140;29;20501;-76
2020/12/14 00:07:07;;;;;;;4.68;2.58;;;12.60;99.90;;;;;;4831892;29;20086;-77
2020/12/14 00:09:33;;;;;;;4.65;2.00;;;12.60;99.90;;;;;;4829386;29;20046;-75
2020/12/14 00:12:00;;;;;;;3.55;2.20;;;12.60;99.90;;;;;;4817140;29;20049;-75
2020/12/14 00:14:26;;;;;;;4.72;1.85;;;12.60;99.90;;;;;;4830701;29;20022;-74
2020/12/14 08:21:29;;;;;;;3.72;1.85;;;13.10;99.90;;;;;;4164266;30;20996;-77
2020/12/14 08:24:16;;;;;;;3.40;1.63;;;13.20;99.90;;;;;;4766116;30;20114;-77
2020/12/14 08:26:46;;;;;;;2.28;1.60;;;13.20;99.90;;;;;;4764438;30;20050;-76
2020/12/14 08:29:19;;;;;;;3.72;2.00;;;13.20;99.90;;;;;;4751231;30;20039;-77
2020/12/14 08:31:48;;;;;;;7.30;3.03;;;13.30;99.90;;;;;;4768488;30;20475;-76
2020/12/14 08:34:31;;;;;;;4.22;2.25;;;13.30;99.90;;;;;;4768344;30;20085;-77
2020/12/14 08:36:58;;;;;;;5.93;1.83;;;13.40;99.90;;;;;;4768380;30;20550;-76
2020/12/14 08:39:25;;;;;;;3.20;1.55;;;13.40;99.90;;;;;;4767979;30;20159;-77
2020/12/14 08:42:08;;;;;;;3.83;1.75;;;13.40;99.90;;;;;;4767983;30;20028;-77
2020/12/14 08:44:37;;;;;;;3.28;1.73;;;13.40;99.90;;;;;;4768360;30;20035;-77
2020/12/14 08:47:14;;;;;;;7.22;2.40;;;13.50;99.90;;;;;;4752381;30;20039;-77
2020/12/14 08:49:41;;;;;;;3.38;1.80;;;13.60;99.90;;;;;;4750629;30;20122;-77
2020/12/14 08:52:08;;;;;;;5.18;1.77;;;13.60;99.90;;;;;;4750297;30;20458;-77
2020/12/14 08:54:34;;;;;;;4.60;2.03;;;13.70;99.90;;;;;;4750425;30;20036;-77
2020/12/14 08:57:01;;;;;;;3.45;1.75;;;13.70;99.90;;;;;;4734839;30;20032;-77
2020/12/14 08:59:27;;;;;;;5.80;2.97;;;13.70;99.90;;;;;;4764555;30;20055;-77
2020/12/14 09:01:56;;;;;;;5.25;1.88;;;13.70;99.90;;;;;;4767882;30;20484;-77
2020/12/14 09:04:35;;;;;;;2.13;1.90;;;13.80;99.90;;;;;;4767969;30;20126;-77
2020/12/14 09:07:01;;;;;;;5.07;2.10;;;13.80;99.90;;;;;;4767881;30;20035;-77
2020/12/14 09:09:34;;;;;;;4.72;2.28;;;13.90;99.90;;;;;;4778775;30;20042;-77
2020/12/14 09:12:02;;;;;;;4.07;2.58;;;13.90;99.90;;;;;;4777942;30;20043;-78
2020/12/14 09:14:30;;;;;;;6.68;2.00;;;14.00;99.90;;;;;;4761691;30;20399;-77
2020/12/14 09:17:03;;;;;;;5.43;1.80;;;14.10;99.90;;;;;;4751724;30;20537;-77
2020/12/14 09:19:33;;;;;;;7.55;2.90;;;14.10;99.90;;;;;;4770905;30;20048;-77
2020/12/14 09:22:00;;;;;;;5.82;2.67;;;14.20;99.90;;;;;;4767326;30;20043;-77
2020/12/14 09:24:31;;;;;;;7.53;2.28;;;14.20;99.90;;;;;;4767579;30;20036;-77
2020/12/14 09:27:07;;;;;;;6.72;2.38;;;14.10;99.90;;;;;;4777907;30;20169;-77
2020/12/14 09:29:35;;;;;;;4.65;2.45;;;14.10;99.90;;;;;;4767559;30;20031;-77
2020/12/14 09:32:03;;;;;;;9.13;2.70;;;14.10;99.90;;;;;;4778981;30;20061;-77
2020/12/14 09:34:29;;;;;;;5.20;2.67;;;13.90;99.90;;;;;;4769422;30;20622;-77
2020/12/14 09:36:57;;;;;;;4.57;2.13;;;13.80;99.90;;;;;;4785298;30;20516;-77
2020/12/14 09:39:26;;;;;;;5.57;2.42;;;13.90;99.90;;;;;;4782089;30;20513;-76
2020/12/14 09:41:55;;;;;;;6.03;2.22;;;13.90;99.90;;;;;;4772621;30;20020;-77
2020/12/14 09:44:21;;;;;;;4.57;2.00;;;13.90;99.90;;;;;;4781415;30;20035;-77
2020/12/14 09:46:47;;;;;;;9.07;2.72;;;13.80;99.90;;;;;;4785313;30;20038;-77
2020/12/14 09:49:14;;;;;;;9.25;2.20;;;14.00;99.90;;;;;;4785277;30;20104;-77
2020/12/14 09:51:40;;;;;;;7.80;3.28;;;14.30;99.90;;;;;;4767737;30;20039;-77
2020/12/14 09:54:07;;;;;;;5.85;2.58;;;14.50;99.90;;;;;;4750821;30;20131;-77
2020/12/14 09:56:34;;;;;;;5.90;2.38;;;14.70;99.90;;;;;;4766903;30;20045;-77
2020/12/14 09:59:01;;;;;;;5.15;1.98;;;14.80;99.90;;;;;;4750906;30;20055;-77
2020/12/14 10:01:30;;;;;;;5.53;1.92;;;14.70;99.90;;;;;;4766727;30;20036;-78
2020/12/14 10:03:56;;;;;;;3.50;1.98;;;14.80;99.90;;;;;;4750848;30;20369;-77
2020/12/14 10:06:23;;;;;;;3.00;1.80;;;15.00;99.90;;;;;;4766805;30;20394;-77
2020/12/14 10:08:49;;;;;;;13.07;2.90;;;14.90;99.90;;;;;;4767157;30;20047;-78
2020/12/14 10:11:16;;;;;;;4.25;2.63;;;14.60;99.90;;;;;;4766745;30;20072;-77
2020/12/14 10:13:43;;;;;;;4.93;2.08;;;14.40;99.90;;;;;;4766938;30;20036;-77
2020/12/14 10:16:12;;;;;;;6.22;3.05;;;14.30;99.90;;;;;;4766733;30;20098;-77
2020/12/14 10:18:38;;;;;;;4.93;3.05;;;14.20;99.90;;;;;;4766907;30;20051;-77
2020/12/14 10:21:06;;;;;;;8.32;2.80;;;14.10;99.90;;;;;;4766583;30;20095;-77
2020/12/14 10:23:33;;;;;;;3.83;2.30;;;14.00;99.90;;;;;;4778629;30;20031;-78
2020/12/14 10:25:59;;;;;;;11.50;3.05;;;13.80;99.90;;;;;;4769515;30;20027;-77
2020/12/14 10:28:25;;;;;;;9.57;3.72;;;13.80;99.90;;;;;;4784334;30;20043;-77
2020/12/14 10:30:51;;;;;;;16.58;5.80;;;13.80;99.90;;;;;;4759361;30;20032;-77
2020/12/14 10:33:18;;;;;;;5.80;2.80;;;13.70;99.90;;;;;;4775153;30;20047;-77
2020/12/14 10:35:45;;;;;;;4.15;2.50;;;13.80;99.90;;;;;;4784401;30;20502;-77
2020/12/14 10:38:12;;;;;;;5.32;3.05;;;13.70;99.90;;;;;;4753057;30;20589;-77
2020/12/14 10:40:38;;;;;;;24.15;3.28;;;13.80;99.90;;;;;;4760886;30;20394;-78
2020/12/14 10:43:04;;;;;;;4.72;2.10;;;13.70;99.90;;;;;;4772159;30;20032;-77
2020/12/14 10:45:30;;;;;;;4.15;2.83;;;13.60;99.90;;;;;;4778089;30;20439;-78
2020/12/14 10:47:56;;;;;;;2.80;1.75;;;13.80;99.90;;;;;;4769127;30;20040;-78
2020/12/14 10:50:24;;;;;;;5.95;3.10;;;14.20;99.90;;;;;;4773201;30;20019;-77
2020/12/14 10:52:50;;;;;;;9.30;2.85;;;14.60;99.90;;;;;;4780271;30;20039;-78
2020/12/14 10:55:18;;;;;;;6.22;2.30;;;14.90;99.90;;;;;;4758264;30;20031;-77
2020/12/14 10:57:45;;;;;;;6.32;2.03;;;15.00;99.90;;;;;;4778707;30;20432;-78
2020/12/14 11:00:11;;;;;;;3.92;2.50;;;15.00;99.90;;;;;;4769031;30;20046;-77
2020/12/14 11:02:41;;;;;;;8.18;2.40;;;15.00;99.90;;;;;;4766588;30;20403;-78
2020/12/14 11:05:08;;;;;;;8.93;3.17;;;15.10;99.90;;;;;;4775370;30;20681;-78
2020/12/14 11:07:35;;;;;;;2.00;1.55;;;15.30;99.90;;;;;;4773498;30;20111;-77
2020/12/14 11:10:03;;;;;;;8.52;2.65;;;15.30;99.90;;;;;;4767013;30;20177;-77
2020/12/14 11:12:29;;;;;;;7.25;2.10;;;15.40;99.90;;;;;;4751629;30;20042;-77
2020/12/14 11:14:55;;;;;;;2.58;1.25;;;15.40;99.90;;;;;;4773376;30;20024;-77
2020/12/14 11:17:22;;;;;;;5.20;2.38;;;15.30;99.90;;;;;;4773157;30;20039;-77
2020/12/14 11:19:48;;;;;;;3.97;1.90;;;15.20;99.90;;;;;;4779609;30;20043;-78
2020/12/14 11:22:14;;;;;;;4.32;2.50;;;15.30;99.90;;;;;;4768903;30;20056;-77
2020/12/14 11:24:40;;;;;;;3.47;1.65;;;15.30;99.90;;;;;;4773753;30;20482;-77
2020/12/14 11:27:07;;;;;;;2.38;1.73;;;15.30;99.90;;;;;;4774968;30;20032;-77
2020/12/14 11:29:33;;;;;;;4.80;2.10;;;15.40;99.90;;;;;;4760727;30;20043;-78
2020/12/14 11:31:59;;;;;;;3.38;2.20;;;15.60;99.90;;;;;;4780604;30;20055;-78
2020/12/14 11:34:25;;;;;;;2.63;1.92;;;15.60;99.90;;;;;;4769467;30;20088;-77
2020/12/14 11:36:52;;;;;;;7.07;2.25;;;15.70;99.90;;;;;;4760721;30;20479;-77
2020/12/14 11:39:18;;;;;;;6.10;2.85;;;15.40;99.90;;;;;;4776066;30;20102;-77
2020/12/14 11:41:47;;;;;;;4.35;2.35;;;15.00;99.90;;;;;;4770427;30;20032;-77
2020/12/14 11:44:15;;;;;;;2.80;1.30;;;14.80;99.90;;;;;;4761526;30;20446;-77
2020/12/14 11:46:42;;;;;;;4.28;1.80;;;14.50;99.90;;;;;;4777948;30;20024;-77
2020/12/14 11:49:08;;;;;;;3.20;1.48;;;14.60;99.90;;;;;;4774713;30;20100;-77
2020/12/14 11:51:37;;;;;;;5.32;1.70;;;14.90;99.80;;;;;;4771380;30;20498;-77
2020/12/14 11:54:04;;;;;;;2.35;1.25;;;14.70;99.60;;;;;;4767782;30;20047;-77
2020/12/14 11:56:30;;;;;;;2.67;1.77;;;14.90;99.60;;;;;;4768502;30;20031;-77
2020/12/14 11:58:56;;;;;;;3.55;1.20;;;15.20;98.50;;;;;;4773141;30;20456;-78
2020/12/14 12:01:23;;;;;;;1.52;1.30;;;15.10;97.60;;;;;;4775633;30;20092;-78
2020/12/14 12:03:50;;;;;;;1.90;1.35;;;14.80;98.30;;;;;;4779716;30;20371;-77
2020/12/14 12:06:17;;;;;;;6.25;1.85;;;14.60;99.40;;;;;;4780865;30;20024;-77
2020/12/14 12:08:43;;;;;;;6.43;1.88;;;14.50;99.90;;;;;;4771247;30;20032;-77
2020/12/14 12:11:13;;;;;;;2.78;1.65;;;14.40;99.90;;;;;;4774238;30;20067;-77
2020/12/14 12:13:40;;;;;;;2.40;1.77;;;14.20;99.90;;;;;;4778516;29;20035;-77
2020/12/14 12:16:07;;;;;;;4.57;2.50;;;14.10;99.90;;;;;;4783820;30;20483;-77
2020/12/14 12:18:33;;;;;;;5.72;1.98;;;14.00;99.90;;;;;;4773123;30;20038;-77
2020/12/14 12:20:59;;;;;;;2.40;1.70;;;14.10;99.90;;;;;;4778582;30;20137;-77
2020/12/14 12:23:25;;;;;;;5.07;2.30;;;14.10;99.90;;;;;;4779705;30;20035;-77
2020/12/14 12:25:51;;;;;;;4.07;1.88;;;13.90;99.90;;;;;;4772157;30;20403;-78
2020/12/14 12:28:17;;;;;;;4.03;1.67;;;13.90;99.90;;;;;;4778660;30;20464;-77
2020/12/14 12:30:43;;;;;;;5.55;1.17;;;14.40;99.90;;;;;;4780522;30;20027;-77
2020/12/14 12:33:10;;;;;;;3.45;2.05;;;14.60;99.90;;;;;;4777559;30;20073;-77
2020/12/14 12:35:36;;;;;;;2.53;1.58;;;15.00;99.90;;;;;;4773838;30;20089;-77
2020/12/14 12:38:02;;;;;;;2.97;1.90;;;14.80;99.90;;;;;;4780926;30;20070;-77
2020/12/14 12:40:28;;;;;;;2.80;1.38;;;14.50;99.90;;;;;;4772321;30;20083;-78
2020/12/14 12:42:54;;;;;;;4.45;1.67;;;14.20;99.90;;;;;;4779338;30;20020;-78
2020/12/14 12:45:21;;;;;;;3.90;2.28;;;14.40;99.90;;;;;;4778660;30;20070;-78
2020/12/14 12:47:47;;;;;;;4.45;1.48;;;14.50;99.90;;;;;;4771828;30;20024;-77
2020/12/14 12:50:13;;;;;;;7.57;1.65;;;14.50;99.90;;;;;;4763924;30;20407;-77
2020/12/14 12:52:39;;;;;;;3.00;1.40;;;14.60;99.90;;;;;;4782454;30;20111;-78
2020/12/14 12:55:05;;;;;;;3.10;1.55;;;14.80;99.90;;;;;;4777113;30;20035;-77
2020/12/14 12:57:31;;;;;;;3.17;1.58;;;14.90;99.90;;;;;;4770755;30;20061;-77
2020/12/14 12:59:57;;;;;;;5.55;2.40;;;14.90;99.90;;;;;;4766598;30;20562;-77
2020/12/14 13:02:28;;;;;;;8.75;1.95;;;14.90;99.90;;;;;;4771545;30;20079;-77
2020/12/14 13:04:56;;;;;;;3.55;1.63;;;14.90;99.90;;;;;;4775597;30;20514;-77
2020/12/14 13:07:22;;;;;;;4.75;2.15;;;14.90;99.90;;;;;;4779707;30;20490;-77
2020/12/14 13:09:49;;;;;;;7.78;1.60;;;15.00;99.90;;;;;;4769971;30;20458;-77
2020/12/14 13:12:18;;;;;;;3.67;1.60;;;15.10;99.50;;;;;;4769631;30;20427;-77
2020/12/14 13:14:45;;;;;;;3.15;2.05;;;15.10;99.70;;;;;;4781457;30;20088;-77
2020/12/14 13:17:11;;;;;;;3.15;1.73;;;15.20;99.90;;;;;;4762559;30;20046;-78
2020/12/14 13:19:37;;;;;;;2.55;1.40;;;15.20;99.90;;;;;;4773018;30;20055;-78
2020/12/14 13:22:03;;;;;;;2.60;1.58;;;15.10;99.10;;;;;;4781824;30;20063;-78
2020/12/14 13:24:29;;;;;;;6.30;2.38;;;15.00;99.20;;;;;;4771728;29;20041;-78
2020/12/14 13:26:55;;;;;;;2.00;1.40;;;15.00;99.70;;;;;;4780401;30;20114;-78
2020/12/14 13:29:21;;;;;;;2.22;1.40;;;15.00;99.90;;;;;;4774412;30;20806;-78
2020/12/14 13:31:47;;;;;;;2.65;1.73;;;15.00;99.80;;;;;;4781725;30;20555;-78
2020/12/14 13:34:15;;;;;;;3.80;2.20;;;15.00;99.90;;;;;;4770216;30;20027;-78
2020/12/14 13:36:41;;;;;;;2.75;1.48;;;15.10;99.90;;;;;;4782818;30;20026;-78
2020/12/14 13:39:07;;;;;;;8.38;2.08;;;15.00;99.90;;;;;;4776164;30;20411;-78
2020/12/14 13:41:34;;;;;;;4.53;1.45;;;14.70;99.90;;;;;;4779459;30;20139;-78
2020/12/14 13:44:00;;;;;;;4.28;1.40;;;14.50;99.90;;;;;;4784250;30;20027;-78
2020/12/14 13:46:26;;;;;;;2.67;1.05;;;14.20;99.90;;;;;;4753334;30;20391;-77
2020/12/14 13:48:52;;;;;;;1.50;1.15;;;14.10;99.90;;;;;;4768149;30;20063;-78
2020/12/14 13:51:19;;;;;;;4.70;1.73;;;13.80;99.90;;;;;;4777235;30;20128;-77
2020/12/14 13:53:47;;;;;;;5.40;2.22;;;13.90;99.90;;;;;;4771493;30;20361;-77
2020/12/14 13:56:22;;;;;;;5.00;1.55;;;14.10;99.90;;;;;;4781810;30;20483;-78
2020/12/14 13:58:49;;;;;;;5.00;2.00;;;14.20;99.90;;;;;;4773098;30;20122;-78
2020/12/14 14:01:27;;;;;;;8.35;2.88;;;14.40;99.90;;;;;;4782801;30;20494;-77
2020/12/14 14:04:17;;;;;;;6.20;1.73;;;14.40;99.90;;;;;;4781316;30;20035;-77
2020/12/14 14:07:11;;;;;;;9.98;3.38;;;14.40;99.90;;;;;;4760963;30;20394;-77
2020/12/14 14:20:11;;;;;;;3.08;1.80;;;14.00;99.90;;;;;;4768335;30;20062;-81
2020/12/14 14:22:37;;;;;;;8.95;2.08;;;14.10;99.90;;;;;;4771596;30;20039;-80
2020/12/14 14:25:04;;;;;;;4.03;2.00;;;14.10;99.90;;;;;;4759959;30;20089;-76
2020/12/14 14:27:30;;;;;;;5.00;2.40;;;14.00;99.90;;;;;;4762325;30;20440;-78
2020/12/14 14:29:57;;;;;;;3.67;1.65;;;14.00;99.90;;;;;;4769268;30;20085;-78
2020/12/14 14:32:25;;;;;;;2.63;1.55;;;14.00;99.90;;;;;;4746382;30;20035;-78
2020/12/14 14:34:52;;;;;;;6.75;2.47;;;14.00;99.90;;;;;;4761385;30;20122;-78
2020/12/14 14:37:22;;;;;;;4.47;2.28;;;14.00;99.90;;;;;;4776071;30;20089;-78
2020/12/14 14:39:51;;;;;;;3.65;2.15;;;14.00;99.90;;;;;;4770032;30;20074;-78
2020/12/14 14:42:18;;;;;;;4.63;2.15;;;13.90;99.90;;;;;;4758406;30;20027;-78
2020/12/14 14:44:45;;;;;;;5.07;1.38;;;13.90;99.90;;;;;;4755296;30;20075;-79
2020/12/14 14:47:11;;;;;;;5.00;2.20;;;13.80;99.90;;;;;;4783193;30;20024;-78
2020/12/14 14:49:38;;;;;;;9.55;2.13;;;13.80;99.90;;;;;;4772529;30;20111;-78
2020/12/14 14:52:04;;;;;;;3.88;1.90;;;13.80;99.90;;;;;;4775704;30;20031;-78
2020/12/14 14:54:30;;;;;;;3.88;1.90;;;13.70;99.90;;;;;;4783939;30;20097;-78
2020/12/14 14:56:57;;;;;;;7.30;2.63;;;13.60;99.90;;;;;;4776589;30;20058;-78
2020/12/14 14:59:26;;;;;;;4.38;2.45;;;13.50;99.90;;;;;;4777125;30;20082;-78
2020/12/14 15:01:52;;;;;;;9.05;2.42;;;13.50;99.90;;;;;;4753131;30;20051;-79
2020/12/14 15:04:24;;;;;;;4.75;2.25;;;13.40;99.90;;;;;;4780839;30;20039;-78
2020/12/14 15:06:51;;;;;;;12.68;2.92;;;13.30;99.90;;;;;;4772677;30;20126;-78
2020/12/14 15:09:17;;;;;;;5.55;2.60;;;13.20;99.90;;;;;;4783717;30;20036;-78
2020/12/14 15:11:43;;;;;;;5.22;2.15;;;13.10;99.90;;;;;;4770844;30;20035;-78
2020/12/14 15:14:11;;;;;;;4.22;1.95;;;13.00;99.90;;;;;;4780505;30;20118;-78
2020/12/14 15:16:38;;;;;;;3.83;2.10;;;13.00;99.90;;;;;;4771263;30;20096;-77
2020/12/14 15:19:06;;;;;;;3.97;2.15;;;12.90;99.90;;;;;;4774881;30;20047;-77
2020/12/14 15:21:32;;;;;;;5.78;2.83;;;12.80;99.90;;;;;;4777757;30;20078;-77
2020/12/14 15:23:59;;;;;;;4.68;1.98;;;12.70;99.90;;;;;;4768820;30;20093;-79
2020/12/14 15:26:26;;;;;;;8.52;2.00;;;12.70;99.90;;;;;;4780150;30;20032;-78
2020/12/14 15:28:52;;;;;;;9.43;2.55;;;12.60;99.90;;;;;;4771812;30;20066;-77
2020/12/14 15:31:19;;;;;;;4.82;2.60;;;12.60;99.90;;;;;;4776283;30;20043;-78
2020/12/14 15:33:46;;;;;;;6.07;1.98;;;12.50;99.90;;;;;;4753899;30;20457;-78
2020/12/14 15:36:19;;;;;;;5.57;2.85;;;12.50;99.90;;;;;;4780340;30;20402;-77
2020/12/14 15:38:48;;;;;;;5.32;2.42;;;12.50;99.90;;;;;;4772083;30;20398;-78
2020/12/14 15:41:16;;;;;;;6.40;2.25;;;12.40;99.90;;;;;;4774106;30;20050;-78
2020/12/14 15:43:43;;;;;;;3.85;2.10;;;12.40;99.90;;;;;;4772684;30;20020;-77
2020/12/14 15:46:10;;;;;;;4.63;2.75;;;12.40;99.90;;;;;;4766975;30;20089;-77
2020/12/14 15:48:36;;;;;;;6.60;3.05;;;12.30;99.90;;;;;;4778729;29;20032;-77
2020/12/14 15:51:03;;;;;;;6.45;2.30;;;12.30;99.90;;;;;;4777369;30;20027;-78
2020/12/14 15:53:30;;;;;;;8.25;3.28;;;12.30;99.90;;;;;;4774951;30;20032;-77
2020/12/14 15:55:56;;;;;;;4.90;2.75;;;12.30;99.90;;;;;;4782746;30;20043;-78
2020/12/14 15:58:23;;;;;;;7.75;2.63;;;12.20;99.90;;;;;;4771575;30;20069;-78
2020/12/14 16:00:50;;;;;;;8.02;2.83;;;12.20;99.90;;;;;;4763910;30;20391;-78
2020/12/14 16:03:17;;;;;;;4.75;2.70;;;12.20;99.90;;;;;;4778931;30;20406;-78
2020/12/14 16:05:46;;;;;;;4.18;2.50;;;12.20;99.90;;;;;;4777396;30;20115;-78
2020/12/14 16:08:13;;;;;;;4.57;2.20;;;12.20;99.90;;;;;;4783378;30;20084;-78
2020/12/14 16:10:39;;;;;;;4.95;2.97;;;12.10;99.90;;;;;;4774490;30;20571;-78
2020/12/14 16:13:06;;;;;;;5.78;2.60;;;12.10;99.90;;;;;;4778023;30;20993;-78
2020/12/14 16:15:33;;;;;;;9.80;4.20;;;12.10;99.90;;;;;;4744400;30;20043;-78
2020/12/14 16:18:00;;;;;;;5.57;2.97;;;12.10;99.90;;;;;;4778006;30;20032;-78
2020/12/14 16:20:26;;;;;;;6.60;2.90;;;12.00;99.90;;;;;;4782712;30;20063;-78
2020/12/14 16:22:52;;;;;;;3.63;2.72;;;12.00;99.90;;;;;;4775580;30;20116;-77
2020/12/14 16:25:19;;;;;;;7.72;3.72;;;12.00;99.90;;;;;;4775978;30;20487;-78
2020/12/14 16:27:45;;;;;;;4.63;3.17;;;12.00;99.90;;;;;;4782143;30;20035;-77
2020/12/14 16:30:13;;;;;;;11.13;3.25;;;12.00;99.90;;;;;;4771705;30;20042;-78
2020/12/14 16:32:40;;;;;;;5.60;3.13;;;12.00;99.90;;;;;;4781432;30;20035;-77
2020/12/14 16:35:10;;;;;;;7.50;3.28;;;12.00;99.90;;;;;;4774986;30;20034;-78
2020/12/14 16:37:37;;;;;;;7.60;2.83;;;12.00;99.90;;;;;;4780951;30;20028;-77
2020/12/14 16:40:04;;;;;;;7.53;3.08;;;12.00;99.90;;;;;;4770975;30;20043;-77
2020/12/14 16:42:32;;;;;;;6.68;3.17;;;11.90;99.90;;;;;;4782040;30;20024;-78
2020/12/14 16:45:00;;;;;;;6.18;3.45;;;11.90;99.90;;;;;;4760433;30;20035;-78
2020/12/14 16:47:27;;;;;;;10.32;4.45;;;11.90;99.90;;;;;;4780508;30;20410;-77
2020/12/14 16:49:53;;;;;;;6.30;2.65;;;11.90;99.90;;;;;;4771873;30;20542;-77
2020/12/14 16:52:20;;;;;;;4.47;2.13;;;11.80;99.90;;;;;;4783041;30;20035;-78
2020/12/14 16:54:46;;;;;;;6.60;2.85;;;11.90;99.90;;;;;;4758593;30;20050;-77
2020/12/14 16:57:13;;;;;;;7.30;3.25;;;11.90;99.90;;;;;;4782987;30;20038;-78
2020/12/14 16:59:40;;;;;;;7.47;2.80;;;11.90;99.90;;;;;;4772555;30;20039;-77
2020/12/14 17:02:09;;;;;;;5.35;2.63;;;11.90;99.90;;;;;;4782179;30;20035;-78
2020/12/14 17:07:24;;;;;;;9.90;2.92;;;11.90;99.90;;;;;;4767232;30;20038;-78
2020/12/14 17:09:50;;;;;;;4.88;3.00;;;11.90;99.90;;;;;;4771438;30;20062;-78
2020/12/14 17:12:17;;;;;;;4.50;2.63;;;11.90;99.90;;;;;;4782505;30;20028;-78
2020/12/14 17:14:44;;;;;;;5.47;2.53;;;11.90;99.90;;;;;;4767922;30;20043;-77
2020/12/14 17:17:10;;;;;;;6.50;2.10;;;11.90;99.90;;;;;;4777137;30;20501;-78
2020/12/14 17:19:36;;;;;;;6.72;3.53;;;11.90;99.90;;;;;;4772617;30;20504;-77
2020/12/14 17:22:03;;;;;;;4.63;2.42;;;11.90;99.90;;;;;;4770500;30;20419;-77
2020/12/14 17:24:35;;;;;;;9.60;3.05;;;11.90;99.90;;;;;;4785485;30;20092;-77
2020/12/14 17:27:02;;;;;;;2.55;2.15;;;11.80;99.90;;;;;;4761077;30;20032;-78
2020/12/14 17:29:28;;;;;;;4.70;2.45;;;11.80;99.90;;;;;;4778971;30;20043;-78
2020/12/14 17:31:55;;;;;;;4.32;2.67;;;11.80;99.90;;;;;;4782933;30;20062;-78
2020/12/14 17:34:36;;;;;;;3.08;2.15;;;11.80;99.90;;;;;;4770720;30;20122;-78
2020/12/14 17:37:03;;;;;;;6.60;3.20;;;11.80;99.90;;;;;;4776771;30;20027;-77
2020/12/14 17:39:29;;;;;;;7.13;2.60;;;11.80;99.90;;;;;;4778936;30;20134;-78
2020/12/14 17:41:55;;;;;;;12.15;3.08;;;11.80;99.90;;;;;;4769976;30;20042;-78
2020/12/14 17:44:22;;;;;;;5.50;2.25;;;11.80;99.90;;;;;;4781944;30;20568;-77
2020/12/14 17:46:49;;;;;;;4.28;2.40;;;11.80;99.90;;;;;;4773905;30;20114;-78
2020/12/14 17:49:16;;;;;;;4.90;2.10;;;11.80;99.90;;;;;;4774992;30;20042;-78
2020/12/14 17:51:42;;;;;;;4.65;2.65;;;11.80;99.90;;;;;;4771196;30;20364;-78
2020/12/14 17:54:11;;;;;;;11.40;3.67;;;11.80;99.90;;;;;;4774174;30;20043;-78
2020/12/14 17:56:39;;;;;;;7.75;2.80;;;11.70;99.90;;;;;;4779541;30;20080;-77
2020/12/14 17:59:06;;;;;;;4.50;2.30;;;11.60;99.90;;;;;;4775544;30;20105;-77
2020/12/14 18:01:32;;;;;;;7.32;3.35;;;11.70;99.90;;;;;;4772795;30;20031;-77
2020/12/14 18:03:58;;;;;;;11.35;3.47;;;11.60;99.90;;;;;;4781453;30;20483;-77
2020/12/14 18:06:26;;;;;;;9.38;3.33;;;11.60;99.90;;;;;;4770592;30;20034;-78
2020/12/14 18:08:53;;;;;;;5.53;2.85;;;11.60;99.90;;;;;;4777732;30;20479;-77
2020/12/14 18:11:19;;;;;;;7.35;2.78;;;11.60;99.90;;;;;;4775139;30;20035;-77
2020/12/14 18:13:45;;;;;;;7.00;2.97;;;11.60;99.90;;;;;;4779695;30;20490;-77
2020/12/14 18:16:11;;;;;;;6.57;3.35;;;11.60;99.90;;;;;;4783404;30;20965;-77
2020/12/14 18:18:37;;;;;;;6.68;3.00;;;11.50;99.90;;;;;;4779257;30;20058;-78
2020/12/14 18:21:03;;;;;;;6.70;3.30;;;11.50;99.90;;;;;;4774943;30;20139;-78
2020/12/14 18:23:30;;;;;;;5.55;3.20;;;11.50;99.90;;;;;;4770374;30;20032;-78
2020/12/14 18:25:56;;;;;;;5.43;3.17;;;11.50;99.90;;;;;;4781360;30;20474;-77
2020/12/14 18:28:22;;;;;;;6.95;2.65;;;11.50;99.90;;;;;;4769885;30;20027;-78
2020/12/14 18:30:54;;;;;;;4.40;2.97;;;11.40;99.90;;;;;;4778050;30;20495;-78
2020/12/14 18:38:08;;;;;;;5.30;3.17;;;11.50;99.90;;;;;;4747063;30;20564;-77
2020/12/14 18:43:51;;;;;;;5.03;2.58;;;11.50;99.90;;;;;;4782685;30;20047;-77
2020/12/14 21:23:41;;;;;;;10.18;4.22;;;10.00;99.90;;;;;;4767814;30;20036;-78
2020/12/14 21:25:58;;;;;;;9.98;4.75;;;10.10;99.90;;;;;;4767554;30;20058;-78
2020/12/14 21:28:24;;;;;;;8.45;3.97;;;10.20;99.90;;;;;;4751895;30;20032;-78
2020/12/14 21:30:50;;;;;;;8.32;3.53;;;10.30;99.90;;;;;;4771354;30;20050;-78
2020/12/14 21:33:16;;;;;;;7.72;4.50;;;10.30;99.90;;;;;;4783691;30;20453;-78
2020/12/14 21:35:42;;;;;;;8.98;4.13;;;10.30;99.90;;;;;;4780628;30;20040;-78
2020/12/14 21:38:09;;;;;;;8.00;4.10;;;10.40;99.90;;;;;;4767318;30;20089;-78
2020/12/14 21:40:34;;;;;;;7.03;3.95;;;10.40;99.90;;;;;;4767374;30;20387;-77
2020/12/14 21:43:00;;;;;;;7.50;4.38;;;10.30;99.90;;;;;;4766849;30;20032;-77
2020/12/14 21:45:26;;;;;;;7.43;3.70;;;10.30;99.90;;;;;;4768933;30;20051;-77
2020/12/14 21:47:52;;;;;;;10.88;4.50;;;10.30;99.90;;;;;;4771587;29;20106;-78
2020/12/14 21:50:19;;;;;;;8.90;3.72;;;10.20;99.90;;;;;;4767337;30;20443;-78
2020/12/14 21:52:46;;;;;;;7.10;4.28;;;10.20;99.90;;;;;;4781546;30;20024;-78
2020/12/14 21:55:13;;;;;;;7.65;3.90;;;10.20;99.90;;;;;;4751389;30;20441;-77
2020/12/14 21:57:39;;;;;;;6.63;3.75;;;10.20;99.90;;;;;;4767245;30;20785;-78
2020/12/14 22:00:07;;;;;;;8.82;3.92;;;10.20;99.90;;;;;;4767036;30;20499;-77
2020/12/14 22:02:33;;;;;;;8.07;3.75;;;10.20;99.90;;;;;;4762007;30;20042;-77
2020/12/14 22:05:00;;;;;;;9.70;4.22;;;10.10;99.90;;;;;;4766986;30;20399;-77
2020/12/14 22:07:27;;;;;;;8.68;3.35;;;10.10;99.90;;;;;;4762006;30;20056;-77
2020/12/14 22:09:54;;;;;;;8.43;3.80;;;10.10;99.90;;;;;;4749355;30;20407;-77
2020/12/14 22:12:21;;;;;;;6.00;4.07;;;10.10;99.90;;;;;;4749395;30;20581;-77
2020/12/14 22:14:47;;;;;;;9.23;4.57;;;10.10;99.90;;;;;;4762661;30;20040;-77
2020/12/14 22:17:13;;;;;;;6.93;3.35;;;10.20;99.90;;;;;;4766755;30;20130;-77
2020/12/14 22:19:39;;;;;;;9.45;3.75;;;10.20;99.90;;;;;;4766418;30;20044;-76
2020/12/14 22:22:05;;;;;;;5.88;3.28;;;10.30;99.90;;;;;;4766110;30;20131;-77
2020/12/14 22:24:31;;;;;;;6.35;3.20;;;10.30;99.90;;;;;;4766664;30;20382;-77
2020/12/14 22:26:57;;;;;;;10.85;3.65;;;10.40;99.90;;;;;;4767087;30;20039;-77
2020/12/14 22:29:24;;;;;;;5.50;3.40;;;10.50;99.90;;;;;;4766538;30;20113;-77
2020/12/14 22:31:54;;;;;;;7.63;3.60;;;10.60;99.90;;;;;;4766365;30;20036;-76
2020/12/14 22:34:20;;;;;;;5.50;2.80;;;10.60;99.90;;;;;;4766631;30;20036;-77
2020/12/14 22:36:46;;;;;;;6.82;3.85;;;10.70;99.90;;;;;;4767138;30;20090;-77
2020/12/14 22:39:12;;;;;;;9.85;3.60;;;10.70;99.90;;;;;;4766496;30;20558;-77
2020/12/14 22:41:39;;;;;;;7.07;3.80;;;10.70;99.90;;;;;;4750714;30;20552;-78
2020/12/14 22:44:05;;;;;;;7.55;2.90;;;10.70;99.90;;;;;;4766444;30;20039;-78
2020/12/14 22:46:31;;;;;;;6.32;3.08;;;10.70;99.90;;;;;;4766779;30;20042;-76
2020/12/14 22:48:57;;;;;;;5.65;2.97;;;10.70;99.90;;;;;;4766426;30;20491;-77
2020/12/14 22:51:23;;;;;;;5.22;3.00;;;10.70;99.90;;;;;;4766979;30;20050;-76
2020/12/14 22:53:49;;;;;;;4.93;2.53;;;10.60;99.90;;;;;;4733106;30;20040;-76
2020/12/14 22:56:15;;;;;;;9.07;3.92;;;10.60;99.90;;;;;;4754669;30;20514;-77
2020/12/14 22:58:42;;;;;;;6.85;3.10;;;10.60;99.90;;;;;;4765854;30;20378;-77
2020/12/14 23:01:08;;;;;;;5.43;2.92;;;10.50;99.90;;;;;;4766374;30;20044;-77
2020/12/14 23:03:35;;;;;;;6.93;3.30;;;10.60;99.90;;;;;;4766589;30;20460;-78
2020/12/14 23:06:01;;;;;;;4.68;2.67;;;10.50;99.90;;;;;;4766497;30;20071;-77
2020/12/14 23:08:27;;;;;;;8.38;3.72;;;10.30;99.90;;;;;;4766199;30;20499;-76
2020/12/14 23:10:53;;;;;;;9.15;4.03;;;10.20;99.90;;;;;;4766458;30;20157;-77
2020/12/14 23:13:19;;;;;;;8.88;4.55;;;10.00;99.90;;;;;;4765572;30;20024;-77
2020/12/14 23:15:45;;;;;;;7.95;4.95;;;10.00;99.90;;;;;;4766399;30;20038;-76
2020/12/14 23:18:11;;;;;;;8.57;4.82;;;10.00;99.90;;;;;;4765970;30;20494;-77
2020/12/14 23:20:38;;;;;;;8.45;4.38;;;9.90;99.90;;;;;;4766185;30;20036;-77
2020/12/14 23:23:05;;;;;;;8.82;4.60;;;9.90;99.90;;;;;;4766188;30;20040;-76
2020/12/14 23:25:31;;;;;;;5.90;3.90;;;9.90;99.90;;;;;;4765832;30;20046;-77
2020/12/14 23:27:57;;;;;;;8.13;3.63;;;9.90;99.90;;;;;;4766412;30;20067;-77
2020/12/14 23:30:23;;;;;;;13.43;4.30;;;9.90;99.90;;;;;;4766342;30;20092;-77
2020/12/14 23:32:49;;;;;;;7.38;3.58;;;9.90;99.90;;;;;;4766196;30;20043;-77
2020/12/14 23:35:15;;;;;;;9.15;4.30;;;9.80;99.90;;;;;;4766247;30;20106;-77
2020/12/14 23:37:41;;;;;;;7.45;3.85;;;9.80;99.90;;;;;;4765964;30;20046;-77
2020/12/14 23:40:07;;;;;;;11.35;4.30;;;9.60;99.90;;;;;;4758080;30;20047;-78
2020/12/14 23:42:33;;;;;;;7.45;4.40;;;9.50;99.90;;;;;;4764559;30;20027;-77
2020/12/14 23:44:59;;;;;;;10.52;5.35;;;9.30;99.90;;;;;;4747467;30;20088;-78
2020/12/14 23:47:30;;;;;;;8.95;4.72;;;9.20;99.90;;;;;;4748414;30;20123;-77
2020/12/14 23:49:58;;;;;;;10.30;5.57;;;9.20;99.90;;;;;;4748606;30;20097;-77